Stillwater, Nevada
Current Conditions -  °F | °C
As of 6:56 AM on Wednesday 22 Oct 2014 (Local Time) from KNFL Reporting Station
Broken Clouds Broken Clouds  
Wind Chill: 26°   Ceiling: 28000
Heat Index: 32°   Visibility: 10mi
Dew Point: 18°   Wind: 6mph
Humidity: 56%   Direction: 60°ENE
Pressure: 30.13"   Gusts: NA
Location:  39.5809°N, 118.333°W
Report Text: KNFL 221356Z 06005KT 10SM FEW100 SCT200 BKN280 00/M08 A3013 RMK AO2 SLP169 T00001078
Loading
Personal Weather Stations






























Interactive Weather Map
Tropical Storm Tracking
New forecast layout! Learn more

10-Day Weather Forecast

Advertisements
Track Severe Weather on mobile